Time;durP1;ratioP1;P1;durP2;ratioP2;P2;SDS_P1;SDS_P2;PMS_P1;PMS_P2;Temp;Humidity;BMP_temperature;BMP_pressure;BME280_temperature;BME280_humidity;BME280_pressure;Samples;Min_cycle;Max_cycle;Signal;HPM_P1;HPM_P2
2023/08/25 00:00:32;;;;;;;1.60;0.43;;;;;;;12.87;78.28;100147.56;4994952;28;20054;-94
2023/08/25 00:02:58;;;;;;;0.85;0.45;;;;;;;12.77;78.70;100151.75;4978360;28;20062;-94
2023/08/25 00:05:23;;;;;;;2.05;0.57;;;;;;;12.66;79.26;100160.31;4994256;28;20325;-93
2023/08/25 00:07:49;;;;;;;2.53;0.40;;;;;;;12.67;79.20;100155.94;4995562;28;20479;-94
2023/08/25 00:10:14;;;;;;;1.58;0.43;;;;;;;12.68;79.45;100152.41;4995631;28;20026;-95
2023/08/25 00:12:40;;;;;;;2.63;0.50;;;;;;;12.47;80.02;100154.75;4995477;28;20037;-94
2023/08/25 00:15:06;;;;;;;3.67;0.50;;;;;;;12.65;80.42;100143.09;4994695;28;20026;-94
2023/08/25 00:17:32;;;;;;;2.38;0.35;;;;;;;12.62;80.80;100138.16;4994400;28;20036;-94
2023/08/25 00:19:58;;;;;;;1.95;0.45;;;;;;;12.47;81.29;100134.88;4995388;28;20553;-92
2023/08/25 00:22:23;;;;;;;1.55;0.38;;;;;;;12.64;81.65;100137.09;4994459;28;20116;-93
2023/08/25 00:24:49;;;;;;;2.90;0.82;;;;;;;12.59;81.74;100135.78;4995114;28;20031;-93
2023/08/25 00:27:14;;;;;;;2.85;1.00;;;;;;;12.53;82.68;100133.59;4976242;28;20062;-94
2023/08/25 00:29:39;;;;;;;1.73;0.55;;;;;;;12.46;83.06;100134.97;4995254;28;20027;-93
2023/08/25 00:32:05;;;;;;;1.40;0.30;;;;;;;12.43;82.65;100144.59;4995257;28;20033;-94
2023/08/25 00:34:30;;;;;;;1.70;0.30;;;;;;;12.37;82.34;100139.06;4995143;28;20164;-95
2023/08/25 00:36:56;;;;;;;1.60;0.40;;;;;;;12.23;84.37;100147.75;4995190;28;20407;-94
2023/08/25 00:39:21;;;;;;;2.88;0.52;;;;;;;12.33;84.06;100141.00;4995133;28;20508;-94
2023/08/25 00:41:46;;;;;;;0.85;0.40;;;;;;;12.28;84.21;100150.84;4994427;28;20050;-94
2023/08/25 00:44:12;;;;;;;0.95;0.40;;;;;;;12.20;85.64;100147.97;4994945;28;20026;-94
2023/08/25 00:46:38;;;;;;;4.32;0.60;;;;;;;12.32;86.00;100143.72;4995014;28;20192;-94
2023/08/25 00:49:03;;;;;;;2.05;0.82;;;;;;;12.06;86.56;100140.34;4994811;28;20026;-93
2023/08/25 00:51:29;;;;;;;1.80;0.50;;;;;;;12.20;87.94;100142.81;4976987;28;20037;-93
2023/08/25 00:53:55;;;;;;;0.98;0.45;;;;;;;12.26;87.44;100136.38;4995216;28;20026;-93
2023/08/25 00:56:21;;;;;;;5.00;0.80;;;;;;;12.16;87.46;100142.16;4993246;28;20073;-95
2023/08/25 00:58:46;;;;;;;2.83;0.68;;;;;;;12.25;87.21;100138.13;4994351;28;20026;-95
2023/08/25 01:01:13;;;;;;;1.55;0.30;;;;;;;12.02;87.04;100142.28;4976909;28;20033;-94
2023/08/25 01:03:39;;;;;;;1.83;0.60;;;;;;;12.12;87.86;100140.75;4994056;28;20033;-94
2023/08/25 01:06:05;;;;;;;3.28;1.27;;;;;;;12.25;86.50;100145.06;4994248;28;20088;-94
2023/08/25 01:08:32;;;;;;;3.00;1.42;;;;;;;12.23;86.72;100141.75;4976924;28;20365;-94
2023/08/25 01:11:33;;;;;;;1.17;0.47;;;;;;;12.12;86.68;100145.06;4992965;28;20110;-94
2023/08/25 01:14:17;;;;;;;3.22;0.43;;;;;;;12.04;86.78;100142.19;4976100;28;20026;-93
2023/08/25 01:16:44;;;;;;;6.32;0.68;;;;;;;12.06;88.09;100141.16;4993833;28;20031;-93
2023/08/25 01:19:41;;;;;;;2.85;0.50;;;;;;;11.95;88.59;100136.72;4993837;28;20027;-93
2023/08/25 01:22:13;;;;;;;2.38;0.68;;;;;;;12.01;88.99;100143.22;4993807;28;20037;-93
2023/08/25 01:24:41;;;;;;;1.38;0.35;;;;;;;11.97;89.08;100142.63;4993501;28;20069;-94
2023/08/25 01:27:09;;;;;;;0.93;0.40;;;;;;;12.01;89.05;100148.41;4962037;28;20035;-92
2023/08/25 01:29:35;;;;;;;2.08;0.73;;;;;;;11.95;89.03;100139.31;4974356;28;20023;-94
2023/08/25 01:32:00;;;;;;;2.70;0.43;;;;;;;11.88;89.21;100138.06;4974126;28;20539;-94
2023/08/25 01:34:26;;;;;;;1.85;0.50;;;;;;;11.76;90.30;100144.84;4973112;28;20019;-93
2023/08/25 01:36:53;;;;;;;5.13;0.70;;;;;;;11.72;90.41;100142.56;4973678;28;20023;-94
2023/08/25 01:39:18;;;;;;;2.63;0.40;;;;;;;11.76;91.17;100144.84;4991168;28;20156;-93
2023/08/25 01:41:52;;;;;;;1.20;1.00;;;;;;;11.77;90.93;100145.69;4993098;28;20101;-94
2023/08/25 01:44:19;;;;;;;1.95;0.63;;;;;;;11.63;92.14;100138.00;4993096;28;20058;-94
2023/08/25 01:46:50;;;;;;;1.92;0.50;;;;;;;11.70;92.85;100134.09;4975843;28;20023;-94
2023/08/25 01:49:17;;;;;;;2.80;0.95;;;;;;;11.60;92.74;100133.88;4993316;28;20030;-94
2023/08/25 01:51:44;;;;;;;2.38;0.57;;;;;;;11.71;91.68;100140.94;4993093;28;20516;-93
2023/08/25 01:54:10;;;;;;;1.40;0.60;;;;;;;11.66;92.35;100143.00;4974957;28;20035;-94
2023/08/25 01:56:35;;;;;;;3.00;1.27;;;;;;;11.51;94.05;100140.50;4975484;28;20022;-94
2023/08/25 01:59:01;;;;;;;2.35;0.60;;;;;;;11.39;94.85;100135.28;4993333;28;20092;-94
2023/08/25 02:01:28;;;;;;;0.93;0.47;;;;;;;11.39;95.08;100141.31;4993047;28;20034;-94
2023/08/25 02:03:54;;;;;;;2.75;0.65;;;;;;;11.43;95.89;100140.16;4992976;28;20046;-94
2023/08/25 02:06:19;;;;;;;2.85;0.63;;;;;;;11.36;95.77;100136.31;4992789;28;20050;-94
2023/08/25 02:08:45;;;;;;;1.63;0.60;;;;;;;11.45;96.65;100135.72;4991393;28;20030;-94
2023/08/25 02:11:10;;;;;;;3.50;0.60;;;;;;;11.34;95.77;100135.63;4989985;28;20388;-94
2023/08/25 02:13:35;;;;;;;1.35;0.60;;;;;;;11.46;97.60;100129.66;4990677;28;20038;-93
2023/08/25 02:16:01;;;;;;;1.38;0.80;;;;;;;11.40;97.12;100132.63;4991933;28;20401;-94
2023/08/25 02:18:26;;;;;;;1.23;0.40;;;;;;;11.46;97.42;100129.66;4992688;28;20030;-93
2023/08/25 02:20:55;;;;;;;1.02;0.45;;;;;;;11.49;97.59;100126.84;4992463;28;20030;-93
2023/08/25 02:23:20;;;;;;;1.25;0.40;;;;;;;11.45;97.23;100124.56;4975211;28;20035;-93
2023/08/25 02:25:45;;;;;;;4.70;1.05;;;;;;;11.43;96.94;100122.06;4975380;28;20380;-93
2023/08/25 02:28:11;;;;;;;3.22;0.32;;;;;;;11.44;98.05;100118.56;4992919;28;20037;-93
2023/08/25 02:30:36;;;;;;;2.38;0.70;;;;;;;11.35;98.27;100112.25;4974199;28;20434;-93
2023/08/25 02:33:02;;;;;;;2.20;0.50;;;;;;;11.30;98.05;100113.50;4991422;28;20069;-94
2023/08/25 02:35:27;;;;;;;0.88;0.30;;;;;;;11.11;99.14;100101.75;4992544;28;20037;-94
2023/08/25 02:38:08;;;;;;;2.30;0.45;;;;;;;10.99;100.00;100107.72;4991525;28;20026;-93
2023/08/25 02:40:34;;;;;;;1.10;0.57;;;;;;;11.03;100.00;100106.59;4992511;28;20041;-93
2023/08/25 02:43:01;;;;;;;1.90;0.52;;;;;;;10.91;100.00;100099.66;4992468;28;20034;-94
2023/08/25 02:45:27;;;;;;;3.42;0.60;;;;;;;10.90;100.00;100092.84;4992009;28;20034;-94
2023/08/25 02:47:53;;;;;;;3.55;0.50;;;;;;;10.81;100.00;100104.56;4991290;28;20046;-93
2023/08/25 02:50:19;;;;;;;2.72;0.68;;;;;;;10.82;100.00;100095.88;4974572;28;20038;-93
2023/08/25 02:52:44;;;;;;;1.60;0.50;;;;;;;10.89;100.00;100091.16;4974796;28;20468;-94
2023/08/25 02:55:11;;;;;;;4.70;0.70;;;;;;;10.88;100.00;100095.50;4992903;28;20084;-93
2023/08/25 02:57:37;;;;;;;4.47;0.70;;;;;;;10.96;100.00;100089.84;4992260;28;20105;-93
2023/08/25 03:00:04;;;;;;;2.75;0.50;;;;;;;11.01;100.00;100087.78;4974896;28;20118;-94
2023/08/25 03:02:29;;;;;;;1.88;0.77;;;;;;;11.00;100.00;100086.16;4991080;28;20121;-94
2023/08/25 03:04:55;;;;;;;1.98;0.60;;;;;;;10.90;100.00;100082.50;4991124;28;20460;-93
2023/08/25 03:07:20;;;;;;;2.90;0.40;;;;;;;10.82;100.00;100074.41;4992371;28;20535;-93
2023/08/25 03:09:45;;;;;;;2.28;0.45;;;;;;;10.83;100.00;100073.50;4992299;28;20027;-93
2023/08/25 03:12:11;;;;;;;0.65;0.28;;;;;;;10.91;100.00;100076.41;4992352;28;20113;-93
2023/08/25 03:14:36;;;;;;;6.00;0.88;;;;;;;10.91;100.00;100073.81;4990998;28;20365;-93
2023/08/25 03:17:01;;;;;;;1.58;0.40;;;;;;;10.84;100.00;100067.41;4991197;28;20022;-93
2023/08/25 03:19:27;;;;;;;1.42;0.35;;;;;;;10.86;100.00;100070.72;4974818;28;20026;-94
2023/08/25 03:21:52;;;;;;;2.47;0.57;;;;;;;10.78;100.00;100076.38;4974726;28;20092;-93
2023/08/25 03:24:18;;;;;;;1.80;0.55;;;;;;;10.91;100.00;100073.81;4974543;28;20029;-94
2023/08/25 03:26:43;;;;;;;1.35;0.63;;;;;;;10.78;100.00;100070.38;4992320;28;20032;-93
2023/08/25 03:29:08;;;;;;;3.25;0.80;;;;;;;10.80;100.00;100071.94;4992069;28;20011;-93
2023/08/25 03:31:35;;;;;;;2.72;0.43;;;;;;;10.66;100.00;100059.91;4990974;28;20027;-94
2023/08/25 03:34:00;;;;;;;3.95;0.52;;;;;;;10.69;100.00;100057.13;4992137;28;20106;-94
2023/08/25 03:36:25;;;;;;;0.77;0.43;;;;;;;10.68;100.00;100054.63;4992176;28;20102;-94
2023/08/25 03:38:51;;;;;;;4.15;0.60;;;;;;;10.69;100.00;100053.72;4974582;28;20477;-94
2023/08/25 03:41:17;;;;;;;2.72;0.70;;;;;;;10.69;100.00;100058.88;4974689;28;20014;-93
2023/08/25 03:43:42;;;;;;;1.45;0.50;;;;;;;10.63;100.00;100049.78;4991978;28;20022;-94
2023/08/25 03:46:07;;;;;;;1.58;0.50;;;;;;;10.70;100.00;100055.38;4973433;28;20066;-93
2023/08/25 03:48:33;;;;;;;3.10;0.70;;;;;;;10.58;100.00;100049.25;4992013;28;20022;-94
2023/08/25 03:50:58;;;;;;;3.35;1.25;;;;;;;10.49;100.00;100052.44;4990668;28;20528;-95
2023/08/25 03:53:23;;;;;;;1.45;0.50;;;;;;;10.48;100.00;100056.75;4992118;28;20424;-94
2023/08/25 03:55:49;;;;;;;1.08;0.57;;;;;;;10.40;100.00;100047.84;4991883;28;20030;-94
2023/08/25 03:58:14;;;;;;;1.75;0.40;;;;;;;10.46;100.00;100060.34;4992960;28;20028;-93
2023/08/25 04:00:40;;;;;;;3.38;0.50;;;;;;;10.44;100.00;100062.22;4992764;28;20024;-94
2023/08/25 04:03:06;;;;;;;1.67;0.35;;;;;;;10.31;100.00;100054.38;4995179;28;20027;-94
2023/08/25 04:05:32;;;;;;;1.48;0.52;;;;;;;10.39;100.00;100054.75;4995283;28;20050;-94
2023/08/25 04:07:58;;;;;;;0.95;0.50;;;;;;;10.49;100.00;100044.69;4977545;28;20089;-93
2023/08/25 04:10:23;;;;;;;1.45;0.65;;;;;;;10.34;100.00;100050.78;4995304;28;20027;-94
2023/08/25 04:12:49;;;;;;;1.55;0.40;;;;;;;10.16;100.00;100040.66;4995076;28;20022;-93
2023/08/25 04:15:14;;;;;;;3.03;0.50;;;;;;;10.13;100.00;100040.88;4994178;28;20117;-94
2023/08/25 04:17:40;;;;;;;4.57;0.73;;;;;;;10.22;100.00;100034.31;4977524;28;20027;-94
2023/08/25 04:20:06;;;;;;;1.60;0.50;;;;;;;10.10;100.00;100035.91;4994911;28;20565;-93
2023/08/25 04:22:31;;;;;;;1.70;0.45;;;;;;;10.02;100.00;100043.25;4994964;28;20027;-95
2023/08/25 04:24:56;;;;;;;1.88;0.50;;;;;;;9.99;100.00;100041.69;4993597;28;20037;-93
2023/08/25 04:27:22;;;;;;;1.13;0.55;;;;;;;9.85;100.00;100037.41;4977402;28;20491;-94
2023/08/25 04:29:48;;;;;;;1.23;0.43;;;;;;;10.07;100.00;100041.22;4993987;28;20388;-94
2023/08/25 04:32:15;;;;;;;2.67;0.40;;;;;;;10.12;100.00;100039.22;4977115;28;20632;-93
2023/08/25 04:34:40;;;;;;;1.48;0.50;;;;;;;10.21;100.00;100035.22;4994822;28;20030;-93
2023/08/25 04:37:06;;;;;;;2.85;1.15;;;;;;;10.05;100.00;100037.94;4977402;28;20022;-94
2023/08/25 04:39:31;;;;;;;1.92;0.55;;;;;;;9.88;100.00;100040.72;4994651;28;20050;-93
2023/08/25 04:41:56;;;;;;;1.98;0.75;;;;;;;9.81;100.00;100035.94;4994484;28;20018;-94
2023/08/25 04:44:22;;;;;;;2.40;0.50;;;;;;;9.76;100.00;100043.13;4993738;28;20498;-94
2023/08/25 04:46:47;;;;;;;2.38;0.50;;;;;;;9.75;100.00;100027.75;4994686;28;20050;-93
2023/08/25 04:49:13;;;;;;;2.28;0.60;;;;;;;9.69;100.00;100035.84;4977102;28;20057;-94
2023/08/25 04:51:39;;;;;;;2.47;0.43;;;;;;;9.72;100.00;100031.31;4977092;28;20026;-94
2023/08/25 04:54:05;;;;;;;1.30;0.40;;;;;;;9.62;100.00;100022.50;4994342;28;20392;-95
2023/08/25 04:56:30;;;;;;;2.00;0.70;;;;;;;9.75;100.00;100020.81;4994563;28;20472;-95
2023/08/25 04:58:55;;;;;;;1.17;0.40;;;;;;;9.80;100.00;100013.66;4993571;28;20400;-94
2023/08/25 05:01:21;;;;;;;1.45;0.65;;;;;;;9.93;100.00;100016.31;4994133;28;20027;-95
2023/08/25 05:03:48;;;;;;;2.80;0.60;;;;;;;9.57;100.00;100009.88;4994509;28;20053;-95
2023/08/25 05:06:14;;;;;;;2.53;0.68;;;;;;;9.71;100.00;100014.22;4994326;28;20033;-93
2023/08/25 05:08:39;;;;;;;1.55;0.47;;;;;;;9.82;100.00;100019.53;4976135;28;20353;-96
2023/08/25 05:11:05;;;;;;;1.88;0.65;;;;;;;9.73;100.00;100020.13;4994325;28;20106;-94
2023/08/25 05:13:30;;;;;;;3.85;0.70;;;;;;;9.58;100.00;100015.88;4994154;28;20433;-94
2023/08/25 05:15:56;;;;;;;1.45;0.50;;;;;;;9.61;100.00;100007.97;4994093;28;20472;-94
2023/08/25 05:18:21;;;;;;;2.67;0.70;;;;;;;9.49;100.00;100011.28;4993999;28;20106;-94
2023/08/25 05:20:46;;;;;;;1.33;0.60;;;;;;;9.73;100.00;100014.09;4994256;28;20026;-96
2023/08/25 05:23:12;;;;;;;1.83;0.57;;;;;;;9.64;100.00;100028.41;4974217;28;20117;-95
2023/08/25 05:25:37;;;;;;;0.98;0.50;;;;;;;9.74;100.00;100023.50;4973869;28;20092;-95
2023/08/25 05:28:03;;;;;;;2.35;0.60;;;;;;;9.74;100.00;100023.50;4975824;28;20030;-95
2023/08/25 05:30:28;;;;;;;1.35;0.60;;;;;;;9.81;100.00;100017.88;4991702;28;20033;-95
2023/08/25 05:32:53;;;;;;;3.83;0.93;;;;;;;9.81;100.00;100015.31;4975961;28;20034;-94
2023/08/25 05:35:19;;;;;;;2.90;0.57;;;;;;;9.89;100.00;100011.44;4975135;28;20030;-95
2023/08/25 05:37:44;;;;;;;2.00;0.50;;;;;;;10.16;100.00;100012.28;4976602;28;20037;-96
2023/08/25 05:40:12;;;;;;;4.03;1.08;;;;;;;10.12;100.00;100007.44;4975914;28;20026;-95
2023/08/25 05:42:38;;;;;;;5.78;0.73;;;;;;;10.23;100.00;100007.59;4975804;28;20022;-95
2023/08/25 05:45:04;;;;;;;2.83;0.82;;;;;;;10.31;100.00;100012.28;4976128;28;20575;-95
2023/08/25 05:47:29;;;;;;;1.13;0.50;;;;;;;10.37;100.00;100017.91;4976036;28;20030;-94
2023/08/25 05:49:55;;;;;;;1.38;0.40;;;;;;;10.35;100.00;100016.34;4993820;28;20034;-95
2023/08/25 05:52:20;;;;;;;3.42;0.60;;;;;;;10.44;100.00;100020.94;4975203;28;20026;-96
2023/08/25 05:54:46;;;;;;;2.92;0.73;;;;;;;10.42;100.00;100012.44;4976337;28;20034;-96
2023/08/25 05:57:11;;;;;;;2.03;0.50;;;;;;;10.47;100.00;100020.72;4976094;28;20118;-96
2023/08/25 05:59:37;;;;;;;1.95;0.60;;;;;;;10.59;100.00;100022.53;4975764;28;20037;-96
2023/08/25 06:02:02;;;;;;;1.83;0.70;;;;;;;10.68;100.00;100032.25;4993834;28;20019;-96
2023/08/25 06:04:28;;;;;;;1.50;0.63;;;;;;;10.78;100.00;100032.50;4977406;28;20358;-95
2023/08/25 06:06:57;;;;;;;0.65;0.57;;;;;;;10.89;100.00;100034.38;4996232;28;20026;-96
2023/08/25 06:09:32;;;;;;;5.75;1.75;;;;;;;11.02;100.00;100035.22;4988119;28;20006;-96
2023/08/25 06:12:01;;;;;;;4.15;0.80;;;;;;;11.12;100.00;100031.09;4985812;28;20040;-96
2023/08/25 06:14:26;;;;;;;3.25;0.80;;;;;;;11.22;100.00;100043.41;4998207;23;20465;-96
2023/08/25 06:16:51;;;;;;;3.50;0.85;;;;;;;11.24;100.00;100038.97;4997039;28;20097;-95
2023/08/25 06:19:17;;;;;;;2.13;0.65;;;;;;;11.40;100.00;100033.59;4975569;28;20026;-95
2023/08/25 06:21:42;;;;;;;1.05;0.68;;;;;;;11.55;100.00;100030.78;4975476;28;20483;-95
2023/08/25 06:24:08;;;;;;;2.30;0.88;;;;;;;11.72;100.00;100034.81;4975702;28;20093;-96
2023/08/25 06:26:33;;;;;;;1.75;0.52;;;;;;;11.92;100.00;100030.06;4978244;28;20036;-96
2023/08/25 06:28:59;;;;;;;4.95;0.70;;;;;;;12.17;100.00;100018.84;4975252;28;20113;-95
2023/08/25 06:31:24;;;;;;;1.90;0.60;;;;;;;12.45;100.00;100014.28;4975730;28;20026;-95
2023/08/25 06:33:50;;;;;;;2.05;0.82;;;;;;;12.64;100.00;100028.34;4992549;28;20030;-95
2023/08/25 06:36:15;;;;;;;4.32;0.90;;;;;;;12.70;100.00;100034.03;4995496;28;21705;-95
2023/08/25 06:38:41;;;;;;;1.52;0.70;;;;;;;12.58;100.00;100031.41;4991877;28;20084;-96
2023/08/25 06:41:06;;;;;;;3.67;0.73;;;;;;;12.51;100.00;100022.44;4991794;28;20121;-95
2023/08/25 06:43:32;;;;;;;2.67;0.57;;;;;;;12.55;100.00;100035.97;4992134;28;20365;-94
2023/08/25 06:45:57;;;;;;;3.60;0.82;;;;;;;12.63;100.00;100036.22;4982506;28;20399;-93
2023/08/25 06:48:23;;;;;;;3.63;0.60;;;;;;;12.70;100.00;100034.03;4991841;28;20029;-93
2023/08/25 06:50:48;;;;;;;2.53;0.80;;;;;;;12.81;100.00;100029.72;4974106;28;20468;-93
2023/08/25 06:53:14;;;;;;;1.48;0.50;;;;;;;12.94;100.00;100021.03;4974073;28;20026;-94
2023/08/25 06:55:40;;;;;;;2.92;0.80;;;;;;;13.13;100.00;100023.91;4974189;28;20047;-93
2023/08/25 06:58:06;;;;;;;3.53;1.25;;;;;;;13.17;100.00;100033.13;4991446;28;20092;-93
2023/08/25 07:00:32;;;;;;;1.83;0.52;;;;;;;13.51;100.00;100033.19;4974029;28;20384;-92
2023/08/25 07:02:58;;;;;;;2.92;0.55;;;;;;;13.57;100.00;100043.09;4990852;28;20025;-93
2023/08/25 07:05:23;;;;;;;2.13;0.68;;;;;;;14.69;90.41;100038.69;4974036;28;20026;-92
2023/08/25 07:07:51;;;;;;;3.53;1.17;;;;;;;14.91;84.30;100048.16;4991296;28;20417;-93
2023/08/25 07:10:17;;;;;;;3.67;0.70;;;;;;;15.81;81.81;100053.63;4973839;28;20594;-92
2023/08/25 07:12:43;;;;;;;2.78;0.60;;;;;;;19.18;62.97;100041.63;4991982;28;20042;-94
2023/08/25 07:15:09;;;;;;;3.50;1.05;;;;;;;20.88;53.80;100033.72;4972762;28;20030;-94
2023/08/25 07:17:34;;;;;;;1.20;0.60;;;;;;;18.58;60.42;100033.63;4991273;28;20376;-95
2023/08/25 07:20:00;;;;;;;1.70;0.80;;;;;;;17.39;65.71;100040.56;4966977;28;20032;-94
2023/08/25 07:22:25;;;;;;;2.17;0.70;;;;;;;16.80;68.30;100045.03;4973490;28;20042;-94
2023/08/25 07:24:53;;;;;;;5.63;1.02;;;;;;;16.62;69.27;100043.09;4990951;28;20034;-95
2023/08/25 07:27:21;;;;;;;5.13;2.13;;;;;;;16.56;70.35;100041.03;4973807;28;20109;-95
2023/08/25 07:29:46;;;;;;;5.63;0.80;;;;;;;16.34;71.87;100044.72;4973775;28;20116;-96
2023/08/25 07:32:12;;;;;;;3.33;0.90;;;;;;;16.32;73.43;100043.22;4973850;28;20524;-96
2023/08/25 07:34:37;;;;;;;2.45;0.88;;;;;;;16.29;75.78;100040.84;4978968;28;20037;-95
2023/08/25 07:37:02;;;;;;;4.93;1.08;;;;;;;16.51;73.79;100017.19;4977132;28;20106;-95
2023/08/25 07:39:29;;;;;;;2.63;0.90;;;;;;;17.29;70.51;99999.69;4976070;28;20110;-94
2023/08/25 07:41:54;;;;;;;3.60;1.15;;;;;;;17.23;71.41;99997.63;4987865;28;20031;-95
2023/08/25 07:44:20;;;;;;;4.38;0.88;;;;;;;16.93;73.53;100011.69;4959020;28;20384;-95
2023/08/25 07:46:45;;;;;;;3.10;1.35;;;;;;;16.77;74.30;100009.63;4976366;28;20054;-95
2023/08/25 07:49:10;;;;;;;5.53;1.10;;;;;;;17.50;71.40;100012.50;4992622;28;20515;-96
2023/08/25 07:51:36;;;;;;;4.00;1.20;;;;;;;18.07;69.07;100011.56;4976290;28;20018;-95
2023/08/25 07:54:02;;;;;;;4.28;1.02;;;;;;;19.87;61.64;100011.09;4959824;28;20041;-95
2023/08/25 07:56:27;;;;;;;5.43;1.25;;;;;;;20.52;58.36;100020.88;4975387;28;20067;-95
2023/08/25 07:58:53;;;;;;;3.60;1.50;;;;;;;21.24;56.09;100006.25;4957844;28;20524;-95
2023/08/25 08:01:19;;;;;;;4.82;1.50;;;;;;;22.46;52.42;100009.31;4975902;28;20033;-94
2023/08/25 08:03:45;;;;;;;4.15;1.15;;;;;;;22.36;52.01;100006.94;4993320;28;20026;-95
2023/08/25 08:06:10;;;;;;;3.30;0.93;;;;;;;22.75;51.40;100009.44;4975691;28;20050;-94
2023/08/25 08:08:36;;;;;;;5.82;1.20;;;;;;;22.08;51.58;100010.06;4975485;28;20551;-95
2023/08/25 08:11:02;;;;;;;4.63;1.02;;;;;;;22.34;51.43;100011.56;4976557;28;20382;-95
2023/08/25 08:13:27;;;;;;;3.92;1.10;;;;;;;22.03;51.42;100004.50;4957298;28;20030;-95
2023/08/25 08:15:52;;;;;;;4.07;0.90;;;;;;;22.35;51.25;100000.88;4974679;28;20023;-94
2023/08/25 08:18:18;;;;;;;2.83;1.13;;;;;;;23.12;49.61;100001.69;4964499;28;20118;-95
2023/08/25 08:20:43;;;;;;;3.35;0.80;;;;;;;21.97;51.07;100007.81;4985984;28;20029;-95
2023/08/25 08:23:09;;;;;;;5.53;1.10;;;;;;;22.91;50.83;100005.84;4975097;28;20019;-95
2023/08/25 08:25:36;;;;;;;3.67;1.08;;;;;;;23.31;48.96;100005.63;4974939;28;20023;-95
2023/08/25 08:28:02;;;;;;;5.53;1.10;;;;;;;23.16;50.11;100021.41;4959312;28;20030;-94
2023/08/25 08:30:27;;;;;;;5.00;1.00;;;;;;;24.21;47.41;100010.56;4985877;28;20027;-92
2023/08/25 08:32:52;;;;;;;3.88;0.80;;;;;;;24.05;46.34;100016.91;4987014;28;20034;-94
2023/08/25 08:35:18;;;;;;;4.30;1.35;;;;;;;24.34;45.90;100016.00;4980717;28;20527;-91
2023/08/25 08:37:43;;;;;;;4.20;0.98;;;;;;;23.58;47.13;100015.53;4976593;28;20042;-92
2023/08/25 08:40:10;;;;;;;3.60;0.90;;;;;;;24.54;45.04;100010.94;4959589;28;20081;-92
2023/08/25 08:42:37;;;;;;;4.45;1.23;;;;;;;24.79;44.43;100015.81;4975685;28;20077;-91
2023/08/25 08:45:08;;;;;;;5.53;1.23;;;;;;;24.19;45.90;100027.59;4992578;28;20385;-92
2023/08/25 08:47:37;;;;;;;5.32;1.67;;;;;;;24.63;46.16;100016.91;4976919;28;20026;-92
2023/08/25 08:50:04;;;;;;;4.57;1.50;;;;;;;24.85;44.55;100020.31;4994446;28;20033;-92
2023/08/25 08:52:30;;;;;;;3.05;1.20;;;;;;;24.80;44.58;100028.00;4976812;28;20531;-92
2023/08/25 08:54:57;;;;;;;5.25;1.52;;;;;;;24.69;45.32;100026.69;4994374;28;20027;-93
2023/08/25 08:57:24;;;;;;;4.03;1.13;;;;;;;24.08;46.33;100042.09;4994378;28;20080;-92
2023/08/25 08:59:51;;;;;;;3.38;1.42;;;;;;;24.58;46.11;100040.41;4976815;28;20034;-92
2023/08/25 09:02:20;;;;;;;2.60;1.00;;;;;;;24.32;44.15;100041.75;4994330;28;20031;-91
2023/08/25 09:04:50;;;;;;;2.75;0.85;;;;;;;24.06;45.39;100042.25;4976608;28;20070;-92
2023/08/25 09:07:17;;;;;;;2.85;0.80;;;;;;;24.53;43.52;100037.50;4976647;28;20475;-92
2023/08/25 09:09:44;;;;;;;3.22;0.93;;;;;;;24.65;44.05;100041.25;4994181;28;20022;-92
2023/08/25 09:12:09;;;;;;;1.50;0.70;;;;;;;23.90;44.84;100042.50;4976452;28;20089;-93
2023/08/25 09:14:34;;;;;;;3.90;0.88;;;;;;;24.57;42.99;100036.13;4993956;28;20081;-92
2023/08/25 09:17:02;;;;;;;6.55;0.88;;;;;;;24.15;43.35;100048.25;4994111;28;20045;-92
2023/08/25 09:19:30;;;;;;;1.85;0.70;;;;;;;24.54;42.81;100039.13;4993954;28;20033;-92
2023/08/25 09:21:56;;;;;;;3.33;0.60;;;;;;;24.38;44.15;100028.81;4976237;28;20384;-93
2023/08/25 09:24:21;;;;;;;3.67;1.02;;;;;;;24.72;42.14;100028.94;4993750;28;20109;-92
2023/08/25 09:26:47;;;;;;;6.60;0.88;;;;;;;23.76;44.64;100030.16;4993871;28;20027;-92
2023/08/25 09:29:13;;;;;;;2.88;0.93;;;;;;;23.97;44.64;100029.38;4976202;28;20036;-92
2023/08/25 09:31:39;;;;;;;6.00;0.73;;;;;;;24.14;45.02;100028.16;4993598;28;20101;-92
2023/08/25 09:34:07;;;;;;;2.03;0.70;;;;;;;23.81;44.91;100025.16;4976213;28;20057;-92
2023/08/25 09:36:33;;;;;;;3.85;0.75;;;;;;;23.47;46.01;100027.31;4993591;28;20117;-92
2023/08/25 09:39:01;;;;;;;3.88;1.40;;;;;;;22.52;47.97;100019.97;4976021;28;20116;-91
2023/08/25 09:41:29;;;;;;;3.63;1.05;;;;;;;22.53;47.92;100024.25;4976012;28;20503;-91
2023/08/25 09:43:56;;;;;;;5.10;0.80;;;;;;;22.32;48.71;100018.81;4993532;28;20057;-92
2023/08/25 09:46:32;;;;;;;3.28;0.75;;;;;;;22.41;48.77;100020.38;4993419;28;20065;-93
2023/08/25 09:49:09;;;;;;;3.50;0.90;;;;;;;22.32;48.38;100017.00;4993292;28;20033;-92
2023/08/25 09:51:34;;;;;;;3.00;0.70;;;;;;;21.97;49.42;100021.78;4975511;28;20543;-92
2023/08/25 09:54:05;;;;;;;2.85;0.65;;;;;;;21.63;49.32;100016.84;4975979;28;20038;-93
2023/08/25 09:56:33;;;;;;;3.88;0.68;;;;;;;21.88;49.27;100016.75;4992548;28;20077;-92
2023/08/25 09:58:59;;;;;;;3.13;0.70;;;;;;;21.86;49.65;100011.66;4975737;28;20389;-91
2023/08/25 10:01:25;;;;;;;2.75;0.60;;;;;;;22.06;49.85;100016.47;4993072;28;20022;-92
2023/08/25 10:03:53;;;;;;;3.25;0.70;;;;;;;21.72;51.04;100010.56;4992946;28;20109;-92
2023/08/25 10:06:18;;;;;;;2.53;0.52;;;;;;;21.65;51.11;100009.59;4992944;28;20030;-92
2023/08/25 10:08:44;;;;;;;2.28;0.65;;;;;;;21.90;50.59;100005.06;4993120;28;20396;-92
2023/08/25 10:11:11;;;;;;;2.35;0.70;;;;;;;21.67;52.75;100020.75;4975419;28;20085;-92
2023/08/25 10:13:37;;;;;;;3.58;0.60;;;;;;;21.66;51.17;100020.94;4993012;28;20078;-93
2023/08/25 10:16:04;;;;;;;4.53;0.90;;;;;;;21.33;51.14;100015.75;4992894;28;20022;-93
2023/08/25 10:18:42;;;;;;;3.63;0.75;;;;;;;21.27;51.49;100012.00;4975481;28;20038;-92
2023/08/25 10:21:09;;;;;;;3.33;0.85;;;;;;;21.24;51.89;100022.84;4975374;28;20029;-92
2023/08/25 10:23:36;;;;;;;3.10;0.50;;;;;;;21.30;51.58;100016.91;4992885;28;20050;-93
2023/08/25 10:26:03;;;;;;;1.35;0.60;;;;;;;21.28;52.47;100024.13;4992852;28;20033;-93
2023/08/25 10:28:28;;;;;;;5.78;0.60;;;;;;;21.21;51.57;100012.66;4975197;28;20026;-93
2023/08/25 10:30:54;;;;;;;10.20;1.67;;;;;;;21.45;51.61;100003.13;4992482;28;20048;-92
2023/08/25 10:33:19;;;;;;;2.45;0.60;;;;;;;21.43;52.26;100005.09;4992841;28;20058;-93
2023/08/25 10:35:46;;;;;;;3.30;0.60;;;;;;;21.37;52.17;100002.13;4992526;28;20089;-92
2023/08/25 10:38:29;;;;;;;3.63;0.68;;;;;;;21.22;52.38;100006.44;4975271;28;20038;-93
2023/08/25 10:40:56;;;;;;;3.22;1.02;;;;;;;21.52;53.22;99998.84;4975106;28;20026;-92
2023/08/25 10:43:26;;;;;;;4.72;1.27;;;;;;;21.75;52.83;99993.63;4992732;28;20597;-92
2023/08/25 10:45:52;;;;;;;2.35;0.88;;;;;;;22.09;50.80;99997.72;4975058;28;20034;-93
2023/08/25 10:48:21;;;;;;;1.67;0.35;;;;;;;22.07;50.22;99995.28;4992680;28;20075;-92
2023/08/25 10:50:47;;;;;;;2.45;0.70;;;;;;;22.03;50.54;99996.63;4975117;28;20022;-92
2023/08/25 10:53:41;;;;;;;3.22;0.80;;;;;;;22.41;51.73;99999.34;4975058;28;20131;-92
2023/08/25 10:56:21;;;;;;;1.58;0.65;;;;;;;22.75;49.92;99990.19;4975084;28;20049;-93
2023/08/25 10:59:11;;;;;;;2.83;0.90;;;;;;;22.88;49.44;99993.03;4974832;28;20026;-92
2023/08/25 11:01:39;;;;;;;3.35;0.75;;;;;;;23.07;48.70;99992.56;4992353;28;20027;-92
2023/08/25 11:04:06;;;;;;;4.20;0.93;;;;;;;22.89;50.22;99999.94;4975079;28;20081;-92
2023/08/25 11:06:42;;;;;;;1.65;0.60;;;;;;;23.05;48.92;99994.53;4992370;28;20026;-93
2023/08/25 11:09:27;;;;;;;2.30;0.60;;;;;;;22.96;47.53;99998.22;4978835;28;20388;-92
2023/08/25 11:11:58;;;;;;;2.33;0.70;;;;;;;22.89;48.39;99997.28;4978282;28;20532;-92
2023/08/25 11:14:31;;;;;;;2.40;0.50;;;;;;;22.43;48.01;100002.63;4978723;28;20030;-92
2023/08/25 11:16:58;;;;;;;3.15;0.50;;;;;;;23.33;46.85;100003.63;4996370;28;20030;-93
2023/08/25 11:19:27;;;;;;;2.40;0.43;;;;;;;23.50;46.57;99995.34;4978688;28;20038;-92
2023/08/25 11:22:00;;;;;;;2.20;0.30;;;;;;;23.53;48.16;99999.44;4978593;28;20034;-91